Time;durP1;ratioP1;P1;durP2;ratioP2;P2;SDS_P1;SDS_P2;PMS_P1;PMS_P2;Temp;Humidity;BMP_temperature;BMP_pressure;BME280_temperature;BME280_humidity;BME280_pressure;Samples;Min_cycle;Max_cycle;Signal;HPM_P1;HPM_P2
2021/01/07 00:03:12;;;;;;;65.13;27.10;;;;;;;1.96;94.19;99915.19;3561194;81;98365;-83
2021/01/07 00:08:13;;;;;;;60.30;26.83;;;;;;;1.86;94.42;99912.91;3559586;81;29918;-84
2021/01/07 00:13:14;;;;;;;74.60;28.43;;;;;;;1.84;94.64;99909.16;3553478;80;98250;-83
2021/01/07 00:18:15;;;;;;;62.47;27.73;;;;;;;1.86;94.73;99907.48;3561118;81;27018;-83
2021/01/07 00:23:16;;;;;;;70.40;27.93;;;;;;;1.89;94.92;99906.25;3539259;81;98147;-83
2021/01/07 00:28:20;;;;;;;68.97;30.87;;;;;;;1.99;94.88;99908.56;3563623;81;28425;-83
2021/01/07 00:33:21;;;;;;;70.37;27.70;;;;;;;2.09;94.88;99903.28;3554572;79;98330;-83
2021/01/07 00:38:22;;;;;;;65.47;27.50;;;;;;;2.11;94.79;99902.37;3552763;81;32633;-82
2021/01/07 00:43:23;;;;;;;67.70;29.97;;;;;;;2.17;94.73;99890.98;3548543;80;98333;-83
2021/01/07 00:48:23;;;;;;;65.60;25.87;;;;;;;2.28;94.80;99897.58;3563995;81;30931;-82
2021/01/07 00:53:24;;;;;;;58.83;24.67;;;;;;;2.31;94.47;99906.42;3562520;80;98212;-83
2021/01/07 00:58:25;;;;;;;59.93;25.27;;;;;;;2.33;94.36;99905.52;3522583;82;25960;-82
2021/01/07 01:03:26;;;;;;;58.37;25.27;;;;;;;2.34;94.36;99899.50;3569476;80;98287;-82
2021/01/07 01:08:27;;;;;;;61.30;29.30;;;;;;;2.31;94.18;99903.71;3578264;80;35024;-82
2021/01/07 01:13:27;;;;;;;56.30;25.43;;;;;;;2.26;94.04;99901.75;3575273;80;98338;-83
2021/01/07 01:18:29;;;;;;;56.57;23.67;;;;;;;2.09;94.12;99896.49;3576541;80;35367;-82
2021/01/07 01:23:29;;;;;;;59.70;22.17;;;;;;;2.06;94.33;99894.44;3569756;80;98107;-82
2021/01/07 01:28:30;;;;;;;57.45;24.60;;;;;;;2.08;94.46;99884.06;3574973;80;35366;-82
2021/01/07 01:33:31;;;;;;;55.37;23.30;;;;;;;2.10;94.30;99893.45;3567713;80;98624;-82
2021/01/07 01:38:33;;;;;;;51.37;23.40;;;;;;;2.13;94.43;99892.00;3584768;80;34451;-82
2021/01/07 01:43:34;;;;;;;49.13;23.13;;;;;;;2.15;94.33;99887.02;3567522;80;97959;-82
2021/01/07 01:48:36;;;;;;;45.57;22.67;;;;;;;2.13;94.27;99890.05;3574080;80;33249;-82
2021/01/07 01:53:38;;;;;;;52.27;21.00;;;;;;;2.07;94.19;99884.61;3543444;80;98340;-82
2021/01/07 01:58:41;;;;;;;45.03;19.93;;;;;;;2.05;94.42;99882.80;3579432;80;32672;-81
2021/01/07 02:03:42;;;;;;;46.73;20.85;;;;;;;1.98;94.28;99887.17;3567165;80;98081;-82
2021/01/07 02:08:47;;;;;;;45.60;18.37;;;;;;;1.87;94.40;99874.56;3577689;80;33250;-81
2021/01/07 02:13:49;;;;;;;43.60;16.50;;;;;;;1.83;94.65;99881.81;3585477;80;98570;-82
2021/01/07 02:18:57;;;;;;;42.73;18.83;;;;;;;1.77;94.73;99874.19;3582907;79;32700;-81
2021/01/07 02:23:58;;;;;;;38.27;15.97;;;;;;;1.81;94.93;99867.77;3594650;80;97867;-80
2021/01/07 02:28:58;;;;;;;36.30;15.13;;;;;;;1.84;94.97;99875.25;3578858;80;32707;-81
2021/01/07 02:33:59;;;;;;;34.47;13.93;;;;;;;1.92;95.04;99864.87;3572514;80;98339;-81
2021/01/07 02:39:00;;;;;;;34.80;14.40;;;;;;;1.99;94.82;99862.98;3583919;80;32724;-80
2021/01/07 02:44:02;;;;;;;39.17;14.80;;;;;;;2.03;94.70;99862.55;3577398;80;98159;-80
2021/01/07 02:49:02;;;;;;;32.30;14.23;;;;;;;2.00;94.57;99859.13;3577639;80;33590;-80
2021/01/07 02:54:04;;;;;;;35.40;15.47;;;;;;;2.00;94.69;99865.37;3574284;80;98332;-80
2021/01/07 02:59:05;;;;;;;29.80;13.00;;;;;;;1.95;94.61;99858.79;3570402;81;34183;-80
2021/01/07 03:04:06;;;;;;;30.33;12.97;;;;;;;1.90;94.59;99856.83;3526057;81;98155;-80
2021/01/07 03:09:07;;;;;;;30.03;12.37;;;;;;;1.91;94.83;99854.38;3567589;81;32982;-80
2021/01/07 03:14:08;;;;;;;31.33;13.47;;;;;;;1.95;94.72;99853.91;3556983;80;98060;-80
2021/01/07 03:19:09;;;;;;;27.83;13.33;;;;;;;1.99;94.85;99855.65;3567147;81;27722;-80
2021/01/07 03:24:10;;;;;;;27.60;11.63;;;;;;;2.06;94.75;99848.30;3579728;80;98368;-80
2021/01/07 03:29:10;;;;;;;25.83;11.83;;;;;;;2.15;94.74;99850.38;3559040;81;26391;-80
2021/01/07 03:34:12;;;;;;;26.00;12.27;;;;;;;2.20;94.50;99848.22;3541052;80;98106;-81
2021/01/07 03:39:13;;;;;;;30.50;12.50;;;;;;;2.22;94.42;99844.62;3557516;81;26443;-80
2021/01/07 03:44:14;;;;;;;33.83;12.77;;;;;;;2.16;94.27;99842.45;3548766;81;98653;-80
2021/01/07 03:49:15;;;;;;;26.50;11.73;;;;;;;2.07;94.10;99849.91;3562708;81;26610;-79
2021/01/07 03:54:16;;;;;;;26.00;11.47;;;;;;;1.96;94.27;99848.16;3551609;81;98323;-80
2021/01/07 03:59:16;;;;;;;25.97;12.43;;;;;;;1.94;94.38;99851.78;3539116;81;25991;-80
2021/01/07 04:04:17;;;;;;;26.77;10.67;;;;;;;1.93;94.47;99843.41;3515293;80;97933;-80
2021/01/07 04:09:18;;;;;;;23.90;10.77;;;;;;;2.02;94.53;99837.32;3520376;82;26021;-80
2021/01/07 04:14:19;;;;;;;26.10;10.63;;;;;;;2.07;94.44;99841.19;3509476;82;98699;-80
2021/01/07 04:19:20;;;;;;;23.33;10.30;;;;;;;2.09;94.43;99837.56;3521560;82;33858;-81
2021/01/07 04:24:21;;;;;;;26.23;11.40;;;;;;;2.14;94.40;99837.94;3514204;82;98110;-80
2021/01/07 04:29:22;;;;;;;22.63;10.63;;;;;;;2.15;94.38;99844.95;3524649;81;33722;-80
2021/01/07 04:34:23;;;;;;;24.47;10.87;;;;;;;2.09;94.15;99842.98;3520913;82;98340;-80
2021/01/07 04:39:23;;;;;;;23.03;11.63;;;;;;;2.01;94.15;99843.08;3519331;81;31765;-81
2021/01/07 04:44:26;;;;;;;18.73;9.10;;;;;;;1.95;94.37;99847.94;3510099;82;98585;-79
2021/01/07 04:49:27;;;;;;;20.17;9.20;;;;;;;1.95;94.44;99843.06;3521819;82;33445;-81
2021/01/07 04:54:28;;;;;;;21.20;9.53;;;;;;;1.98;94.46;99835.63;3504230;82;97839;-80
2021/01/07 04:59:29;;;;;;;18.73;8.37;;;;;;;2.00;94.62;99832.80;3521156;82;32441;-81
2021/01/07 05:04:31;;;;;;;19.67;8.37;;;;;;;2.05;94.45;99837.22;3501296;82;97890;-81
2021/01/07 05:09:32;;;;;;;20.83;9.07;;;;;;;2.08;94.41;99822.99;3525830;82;29065;-81
2021/01/07 05:14:44;;;;;;;18.97;7.60;;;;;;;2.03;94.41;99829.41;3510915;81;97924;-82
2021/01/07 05:19:45;;;;;;;17.27;7.90;;;;;;;1.94;94.32;99831.43;3516210;82;98192;-83
2021/01/07 05:24:51;;;;;;;14.73;7.00;;;;;;;1.87;94.46;99829.03;3517718;82;33340;-84
2021/01/07 05:29:57;;;;;;;14.30;6.37;;;;;;;1.81;94.57;99839.27;3507034;82;98195;-85
2021/01/07 05:34:58;;;;;;;19.57;7.58;;;;;;;1.88;94.81;99843.63;3518905;82;26168;-85
2021/01/07 05:39:59;;;;;;;18.27;8.65;;;;;;;2.00;94.82;99838.78;3501757;82;98748;-86
2021/01/07 05:45:05;;;;;;;17.53;7.13;;;;;;;2.05;94.55;99851.59;3525794;82;33776;-87
2021/01/07 05:50:08;;;;;;;15.23;6.73;;;;;;;2.11;94.53;99844.83;3499862;80;98013;-87
2021/01/07 05:55:12;;;;;;;13.97;6.30;;;;;;;2.06;94.46;99843.67;3525642;82;33843;-87
2021/01/07 06:00:16;;;;;;;13.47;6.20;;;;;;;1.95;94.31;99841.70;3535733;81;98682;-88
2021/01/07 06:05:17;;;;;;;16.53;8.03;;;;;;;1.85;94.51;99849.70;3546805;81;33413;-88
2021/01/07 06:10:17;;;;;;;17.37;9.43;;;;;;;1.87;94.69;99850.73;3541509;81;98128;-87
2021/01/07 06:15:21;;;;;;;17.27;7.40;;;;;;;1.91;94.84;99847.59;3552888;81;33398;-88
2021/01/07 06:20:22;;;;;;;25.43;11.13;;;;;;;2.00;94.84;99849.64;3528916;81;98597;-88
2021/01/07 06:25:23;;;;;;;24.37;14.80;;;;;;;2.07;94.59;99844.48;3548240;81;33776;-89
2021/01/07 06:30:33;;;;;;;25.17;15.33;;;;;;;2.02;94.48;99847.41;3544955;81;98219;-90
2021/01/07 06:35:40;;;;;;;20.70;12.97;;;;;;;1.93;94.55;99848.84;3553896;81;33354;-89
2021/01/07 06:40:42;;;;;;;16.33;6.80;;;;;;;1.89;94.49;99854.70;3550959;81;98470;-89
2021/01/07 06:45:51;;;;;;;15.07;5.80;;;;;;;1.87;94.66;99856.94;3562706;81;33290;-89
2021/01/07 06:50:55;;;;;;;12.80;5.60;;;;;;;1.87;94.72;99852.86;3525394;81;98593;-89
2021/01/07 06:56:15;;;;;;;12.30;5.43;;;;;;;1.88;94.81;99859.90;3593988;80;33316;-88
2021/01/07 07:01:18;;;;;;;15.67;6.40;;;;;;;2.00;94.91;99864.56;3556457;81;98337;-88
2021/01/07 07:06:25;;;;;;;15.23;7.00;;;;;;;2.06;94.80;99868.66;3565133;81;33349;-87
2021/01/07 07:11:30;;;;;;;16.33;6.60;;;;;;;2.01;94.62;99878.35;3558258;81;98025;-88
2021/01/07 07:16:33;;;;;;;14.67;6.43;;;;;;;1.92;94.61;99869.52;3548627;81;33887;-88
2021/01/07 07:21:36;;;;;;;13.60;6.60;;;;;;;1.85;94.64;99874.11;3556826;80;98002;-88
2021/01/07 07:26:40;;;;;;;16.37;6.43;;;;;;;1.83;94.79;99878.29;3563086;81;33834;-88
2021/01/07 07:31:44;;;;;;;13.83;7.40;;;;;;;1.85;95.01;99874.67;3539960;81;98143;-88
2021/01/07 07:36:45;;;;;;;17.93;8.93;;;;;;;1.94;95.06;99875.39;3559028;81;33330;-88
2021/01/07 07:41:46;;;;;;;18.37;9.17;;;;;;;2.02;94.87;99878.03;3553548;81;98496;-88
2021/01/07 07:46:52;;;;;;;18.10;8.90;;;;;;;2.11;94.84;99891.52;3557413;81;33339;-86
2021/01/07 07:51:53;;;;;;;24.07;12.68;;;;;;;2.08;94.61;99886.77;3528525;81;98224;-87
2021/01/07 07:57:00;;;;;;;20.83;9.57;;;;;;;1.90;94.55;99894.27;3558768;81;33768;-87
2021/01/07 08:02:01;;;;;;;18.43;8.50;;;;;;;1.84;94.73;99902.93;3542535;81;98586;-87
2021/01/07 08:07:07;;;;;;;20.93;11.33;;;;;;;1.76;94.91;99901.87;3564575;81;33336;-86
2021/01/07 08:12:09;;;;;;;19.37;8.35;;;;;;;1.80;95.12;99905.52;3554957;81;98574;-86
2021/01/07 08:17:10;;;;;;;18.27;7.80;;;;;;;1.85;95.22;99905.87;3551215;81;34254;-86
2021/01/07 08:22:11;;;;;;;21.90;10.10;;;;;;;1.93;95.27;99907.18;3553390;81;98213;-85
2021/01/07 08:27:21;;;;;;;17.70;8.17;;;;;;;1.95;95.03;99908.98;3532268;81;33513;-85
2021/01/07 08:32:33;;;;;;;20.73;10.00;;;;;;;1.97;94.97;99904.59;3556830;81;98196;-85
2021/01/07 08:37:35;;;;;;;20.97;9.50;;;;;;;2.00;95.02;99909.34;3560576;81;33821;-85
2021/01/07 08:42:38;;;;;;;23.07;9.97;;;;;;;1.93;94.93;99916.67;3550329;81;98315;-84
2021/01/07 08:47:39;;;;;;;21.30;10.40;;;;;;;1.85;94.90;99915.36;3560123;81;33314;-84
2021/01/07 08:52:53;;;;;;;28.10;13.13;;;;;;;1.85;95.02;99909.94;3550379;81;98183;-84
2021/01/07 08:58:03;;;;;;;28.93;11.90;;;;;;;1.86;95.09;99919.69;3551762;81;33385;-83
2021/01/07 09:03:05;;;;;;;19.10;8.70;;;;;;;1.94;95.44;99914.73;3556549;81;97984;-83
2021/01/07 09:08:11;;;;;;;16.93;8.37;;;;;;;2.00;94.96;99922.36;3557804;81;33376;-84
2021/01/07 09:13:20;;;;;;;18.00;9.83;;;;;;;2.03;95.01;99922.25;3554712;81;98144;-84
2021/01/07 09:18:21;;;;;;;17.63;8.90;;;;;;;2.06;94.70;99929.72;3565276;81;33356;-83
2021/01/07 09:23:22;;;;;;;16.73;9.13;;;;;;;1.95;94.70;99927.98;3570098;81;97857;-84
2021/01/07 09:28:23;;;;;;;18.27;7.73;;;;;;;1.89;94.75;99920.36;3564085;81;33421;-83
2021/01/07 09:33:24;;;;;;;17.50;9.20;;;;;;;1.82;94.87;99924.19;3549972;81;98189;-83
2021/01/07 09:38:27;;;;;;;16.87;8.10;;;;;;;1.85;94.99;99921.59;3557005;81;33945;-83
2021/01/07 09:43:33;;;;;;;19.00;8.63;;;;;;;1.90;95.14;99917.33;3545553;81;97981;-83
2021/01/07 09:48:34;;;;;;;;;;;;;;;2.01;95.12;99914.98;3575696;81;26186;-83
2021/01/07 09:53:35;;;;;;;18.83;8.50;;;;;;;2.01;94.88;99915.80;3571930;81;84303;-84
2021/01/07 09:58:36;;;;;;;20.97;9.93;;;;;;;2.01;94.85;99911.72;3609182;80;33806;-84
2021/01/07 10:03:37;;;;;;;29.30;15.10;;;;;;;1.97;94.72;99904.01;3586277;80;97956;-83
2021/01/07 10:08:38;;;;;;;26.47;13.70;;;;;;;1.86;94.52;99908.25;3595186;80;33429;-83
2021/01/07 10:13:39;;;;;;;20.43;8.50;;;;;;;1.79;94.91;99903.13;3588417;80;98199;-83
2021/01/07 10:18:43;;;;;;;17.73;8.10;;;;;;;1.80;95.08;99902.80;3611053;80;31476;-83
2021/01/07 10:23:47;;;;;;;15.90;7.70;;;;;;;1.83;95.11;99900.80;3547957;81;97785;-83
2021/01/07 10:28:49;;;;;;;14.63;8.20;;;;;;;1.90;95.09;99899.69;3588800;80;33453;-83
2021/01/07 10:33:51;;;;;;;16.57;8.48;;;;;;;1.97;95.04;99899.16;3587750;80;98000;-83
2021/01/07 10:38:53;;;;;;;16.60;7.90;;;;;;;2.03;94.87;99896.47;3591574;80;33804;-83
2021/01/07 10:43:58;;;;;;;17.83;8.73;;;;;;;2.06;94.83;99897.95;3568193;80;98202;-84
2021/01/07 10:48:59;;;;;;;16.57;8.20;;;;;;;1.99;94.45;99903.13;3589292;80;33282;-82
2021/01/07 10:54:12;;;;;;;14.13;7.40;;;;;;;1.91;94.55;99899.14;3571740;80;98168;-83
2021/01/07 10:59:33;;;;;;;14.70;7.33;;;;;;;1.91;94.61;99893.71;3582861;80;33338;-82
2021/01/07 11:04:46;;;;;;;17.40;8.17;;;;;;;1.88;94.75;99901.14;3578171;80;97826;-82
2021/01/07 11:09:51;;;;;;;17.50;8.03;;;;;;;1.85;94.79;99900.44;3575032;80;98166;-83
2021/01/07 11:15:13;;;;;;;20.20;9.57;;;;;;;1.79;94.79;99899.06;3587582;80;33391;-82
2021/01/07 11:20:16;;;;;;;21.17;10.87;;;;;;;1.78;94.93;99901.55;3581292;80;98218;-83
2021/01/07 11:25:17;;;;;;;19.20;9.63;;;;;;;1.82;94.89;99898.41;3582223;80;33819;-84
2021/01/07 11:30:19;;;;;;;20.15;9.23;;;;;;;1.82;94.83;99891.08;3572703;80;98329;-83
2021/01/07 11:35:20;;;;;;;18.53;8.87;;;;;;;1.81;94.83;99888.69;3574540;80;34418;-83
2021/01/07 11:40:37;;;;;;;16.57;7.97;;;;;;;1.81;94.95;99892.76;3575989;80;98438;-81
2021/01/07 11:45:40;;;;;;;21.33;9.37;;;;;;;1.83;94.94;99890.50;3594843;80;33356;-83
2021/01/07 11:50:45;;;;;;;29.92;13.38;;;;;;;1.87;94.91;99888.13;3596442;80;98476;-83
2021/01/07 11:55:47;;;;;;;29.03;12.83;;;;;;;1.90;94.90;99890.75;3584736;80;33347;-83
2021/01/07 12:00:49;;;;;;;22.77;10.43;;;;;;;1.88;94.61;99887.03;3544243;80;98528;-82
2021/01/07 12:05:50;;;;;;;20.33;9.67;;;;;;;1.80;94.72;99878.39;3492463;82;33437;-82
2021/01/07 12:10:54;;;;;;;44.80;22.13;;;;;;;1.80;94.68;99883.81;3492830;82;98417;-82
2021/01/07 12:15:57;;;;;;;20.53;10.80;;;;;;;1.84;94.94;99883.39;3502706;82;33388;-81
2021/01/07 12:21:00;;;;;;;25.23;13.13;;;;;;;1.91;94.79;99878.80;3484797;82;98498;-82
2021/01/07 12:26:03;;;;;;;19.83;9.87;;;;;;;1.92;94.63;99879.80;3481351;82;33393;-82
2021/01/07 12:31:07;;;;;;;19.57;9.83;;;;;;;1.92;94.53;99887.16;3474206;82;98188;-81
2021/01/07 12:36:46;;;;;;;17.53;8.60;;;;;;;1.92;94.49;99892.00;3491705;82;33369;-81
2021/01/07 12:41:50;;;;;;;22.13;10.43;;;;;;;1.86;94.51;99891.20;3494791;82;98255;-82
2021/01/07 12:46:55;;;;;;;22.53;12.13;;;;;;;1.73;94.58;99888.18;3449645;85;33817;-82
2021/01/07 12:51:59;;;;;;;20.03;9.17;;;;;;;1.69;94.71;99892.13;3442437;84;98378;-82
2021/01/07 12:57:19;;;;;;;17.00;8.63;;;;;;;1.69;94.81;99894.83;3494580;83;33372;-83
2021/01/07 13:02:41;;;;;;;17.85;8.18;;;;;;;1.73;94.85;99894.41;3521260;81;98226;-82
2021/01/07 13:07:43;;;;;;;20.80;11.30;;;;;;;1.75;94.82;99888.66;3548001;82;33353;-81
2021/01/07 13:12:47;;;;;;;16.67;8.90;;;;;;;1.76;94.75;99893.73;3539289;82;98560;-82
2021/01/07 13:17:49;;;;;;;21.50;11.90;;;;;;;1.79;94.74;99886.85;3550904;81;33434;-81
2021/01/07 13:22:50;;;;;;;22.20;11.83;;;;;;;1.87;94.84;99896.27;3541972;81;98575;-82
2021/01/07 13:27:51;;;;;;;19.97;9.53;;;;;;;1.85;94.51;99895.02;3550421;81;34194;-82
2021/01/07 13:32:57;;;;;;;17.60;8.53;;;;;;;1.76;94.53;99892.95;3539095;82;98321;-82
2021/01/07 13:37:56;;;;;;;16.20;7.93;;;;;;;1.64;94.51;99902.39;3549626;81;33350;-81
2021/01/07 13:43:01;;;;;;;16.80;8.20;;;;;;;1.58;94.75;99904.48;3523853;81;98234;-82
2021/01/07 13:48:03;;;;;;;17.97;8.70;;;;;;;1.57;94.95;99900.74;3510738;82;33354;-81
2021/01/07 13:53:04;;;;;;;19.80;9.90;;;;;;;1.64;95.12;99913.23;3516358;82;98209;-81
2021/01/07 13:58:06;;;;;;;20.07;10.30;;;;;;;1.73;95.01;99916.66;3518728;82;33372;-81
2021/01/07 14:03:09;;;;;;;28.20;14.77;;;;;;;1.80;94.94;99921.80;3498863;82;98206;-81
2021/01/07 14:08:30;;;;;;;27.73;14.53;;;;;;;1.81;94.79;99924.73;3521529;82;33887;-81
2021/01/07 14:13:34;;;;;;;24.12;12.75;;;;;;;1.85;94.86;99928.38;3496364;82;98372;-81
2021/01/07 14:18:36;;;;;;;25.10;12.87;;;;;;;1.87;94.77;99936.97;3520449;82;33345;-81
2021/01/07 14:23:38;;;;;;;23.83;12.60;;;;;;;1.88;94.61;99934.52;3515234;82;98303;-81
2021/01/07 14:28:55;;;;;;;20.70;12.33;;;;;;;1.84;94.52;99936.84;3515543;83;34021;-81
2021/01/07 14:33:55;;;;;;;22.00;11.27;;;;;;;1.70;94.65;99934.97;3563955;80;98243;-81
2021/01/07 14:38:57;;;;;;;18.40;10.37;;;;;;;1.66;94.65;99936.20;3567039;80;53600;-81
2021/01/07 14:43:58;;;;;;;27.33;12.67;;;;;;;1.60;94.78;99935.35;3577569;80;98239;-83
2021/01/07 14:49:00;;;;;;;27.97;15.10;;;;;;;1.62;94.96;99939.33;3576502;80;33439;-83
2021/01/07 14:54:05;;;;;;;22.77;12.60;;;;;;;1.62;94.90;99937.16;3575625;80;98392;-82
2021/01/07 14:59:26;;;;;;;19.57;10.40;;;;;;;1.60;94.88;99936.70;3594616;80;33408;-82
2021/01/07 15:04:43;;;;;;;20.93;11.03;;;;;;;1.60;94.96;99943.48;3569373;81;97932;-83
2021/01/07 15:09:47;;;;;;;23.30;11.78;;;;;;;1.61;94.98;99941.81;3549567;81;98302;-83
2021/01/07 15:15:01;;;;;;;18.57;10.63;;;;;;;1.61;94.93;99947.23;3568635;81;33365;-82
2021/01/07 15:20:17;;;;;;;23.07;11.93;;;;;;;1.57;94.94;99934.09;3567444;81;98642;-82
2021/01/07 15:25:38;;;;;;;20.13;10.97;;;;;;;1.68;95.18;99944.78;3564730;81;33315;-83
2021/01/07 15:30:43;;;;;;;19.07;10.43;;;;;;;1.77;94.98;99935.23;3574477;78;98490;-83
2021/01/07 15:35:51;;;;;;;20.87;10.93;;;;;;;1.75;94.85;99945.63;3563284;81;33454;-86
2021/01/07 15:41:30;;;;;;;21.77;10.60;;;;;;;1.66;94.70;99944.88;3549247;80;98908;-83
2021/01/07 15:47:00;;;;;;;19.87;11.37;;;;;;;1.61;94.97;99950.50;3563440;81;33410;-83
2021/01/07 15:52:19;;;;;;;19.20;10.47;;;;;;;1.57;94.93;99949.01;3578859;80;98350;-84
2021/01/07 15:57:57;;;;;;;22.70;10.90;;;;;;;1.60;95.11;99953.76;3528984;81;33777;-83
2021/01/07 16:03:04;;;;;;;19.00;9.53;;;;;;;1.64;95.14;99956.05;3523406;81;98371;-83
2021/01/07 16:08:15;;;;;;;22.17;10.83;;;;;;;1.68;95.14;99958.89;3532408;81;33750;-83
2021/01/07 16:13:17;;;;;;;41.50;15.23;;;;;;;1.70;94.97;99952.59;3581705;80;98203;-83
2021/01/07 16:18:18;;;;;;;27.70;12.33;;;;;;;1.70;95.05;99960.16;3553307;81;33339;-84
2021/01/07 16:23:32;;;;;;;22.70;10.23;;;;;;;1.65;94.96;99960.34;3553931;81;98280;-82
2021/01/07 16:28:35;;;;;;;20.90;10.07;;;;;;;1.61;94.99;99967.58;3554763;81;33953;-83
2021/01/07 16:33:36;;;;;;;19.97;10.20;;;;;;;1.53;95.05;99964.91;3551207;81;98184;-82
2021/01/07 16:38:42;;;;;;;21.27;11.03;;;;;;;1.50;95.20;99962.84;3557362;81;33418;-83
2021/01/07 16:43:43;;;;;;;22.42;11.12;;;;;;;1.55;95.38;99968.09;3545688;81;98017;-83
2021/01/07 16:48:45;;;;;;;20.37;9.80;;;;;;;1.59;95.46;99967.67;3561296;81;33313;-82
2021/01/07 16:53:47;;;;;;;30.63;15.70;;;;;;;1.67;95.32;99974.39;3546404;81;98189;-83
2021/01/07 16:58:48;;;;;;;29.17;14.20;;;;;;;1.68;95.23;99968.39;3558626;81;33473;-83
2021/01/07 17:03:49;;;;;;;30.27;15.20;;;;;;;1.71;95.25;99969.87;3549849;81;98356;-82
2021/01/07 17:08:50;;;;;;;32.40;15.23;;;;;;;1.69;95.18;99972.13;3562209;81;33358;-83
2021/01/07 17:13:51;;;;;;;35.07;15.80;;;;;;;1.58;95.16;99972.28;3544485;81;98406;-83
2021/01/07 17:18:52;;;;;;;29.63;12.90;;;;;;;1.53;95.22;99975.19;3565401;81;33404;-83
2021/01/07 17:23:53;;;;;;;27.73;13.60;;;;;;;1.47;95.30;99984.63;3555514;81;98577;-83
2021/01/07 17:28:55;;;;;;;28.57;12.27;;;;;;;1.42;95.44;99992.17;3561314;81;31561;-83
2021/01/07 17:33:56;;;;;;;26.47;12.00;;;;;;;1.46;95.62;99991.18;3552336;81;98066;-83
2021/01/07 17:38:57;;;;;;;24.43;11.60;;;;;;;1.51;95.56;99992.91;3555125;81;31917;-83
2021/01/07 17:43:58;;;;;;;22.93;11.60;;;;;;;1.54;95.45;99998.46;3545757;81;98360;-85
2021/01/07 17:48:59;;;;;;;20.87;11.97;;;;;;;1.59;95.48;99996.14;3558341;81;26646;-83
2021/01/07 17:54:00;;;;;;;21.60;10.83;;;;;;;1.63;95.49;99999.22;3555896;81;98730;-84
2021/01/07 17:59:01;;;;;;;23.17;10.97;;;;;;;1.74;95.43;99999.62;3560543;81;30624;-84
2021/01/07 18:04:05;;;;;;;26.47;13.10;;;;;;;1.75;95.14;100001.23;3554418;81;98597;-84
2021/01/07 18:09:09;;;;;;;30.60;14.47;;;;;;;1.75;95.06;100000.66;3561168;81;32399;-83
2021/01/07 18:14:10;;;;;;;23.80;11.30;;;;;;;1.69;95.02;100003.91;3557319;81;98521;-83
2021/01/07 18:19:11;;;;;;;29.00;13.03;;;;;;;1.59;94.90;100005.63;3557268;81;31869;-83
2021/01/07 18:24:12;;;;;;;21.90;11.77;;;;;;;1.52;95.15;100002.08;3550985;81;98507;-83
2021/01/07 18:29:13;;;;;;;20.13;9.40;;;;;;;1.55;95.11;100007.41;3562330;81;31951;-82
2021/01/07 18:34:15;;;;;;;24.18;10.80;;;;;;;1.59;95.05;100013.19;3555304;81;98524;-82
2021/01/07 18:39:16;;;;;;;20.50;11.17;;;;;;;1.62;95.00;100013.91;3558454;81;32289;-83
2021/01/07 18:44:21;;;;;;;24.67;12.57;;;;;;;1.66;95.00;100017.56;3559756;81;98201;-82
2021/01/07 18:49:21;;;;;;;24.60;11.63;;;;;;;1.59;94.92;100015.12;3566080;81;31803;-82
2021/01/07 18:54:22;;;;;;;27.53;14.03;;;;;;;1.50;94.96;100007.59;3553246;81;98188;-83
2021/01/07 18:59:24;;;;;;;32.13;14.33;;;;;;;1.44;95.18;100026.52;3561845;81;32321;-82
2021/01/07 19:04:25;;;;;;;26.60;12.67;;;;;;;1.40;95.28;100020.16;3538877;81;98199;-82
2021/01/07 19:09:25;;;;;;;27.93;13.00;;;;;;;1.36;95.38;100018.66;3511200;82;31768;-83
2021/01/07 19:14:27;;;;;;;27.80;12.70;;;;;;;1.38;95.37;100019.70;3512910;82;98409;-84
2021/01/07 19:19:28;;;;;;;27.07;12.40;;;;;;;1.35;95.47;100023.85;3516198;82;30940;-82
2021/01/07 19:24:29;;;;;;;24.63;12.17;;;;;;;1.36;95.59;100024.08;3510909;82;98329;-82
2021/01/07 19:29:30;;;;;;;29.27;12.57;;;;;;;1.33;95.62;100026.10;3475551;83;27990;-83
2021/01/07 19:34:31;;;;;;;24.60;11.93;;;;;;;1.34;95.68;100022.81;3517621;81;98886;-82
2021/01/07 19:39:32;;;;;;;25.50;11.53;;;;;;;1.30;95.70;100029.45;3530759;81;29413;-83
2021/01/07 19:44:33;;;;;;;24.67;11.30;;;;;;;1.28;95.74;100033.60;3526099;81;98524;-82
2021/01/07 19:49:36;;;;;;;29.20;12.47;;;;;;;1.32;95.91;100036.69;3523824;81;98352;-85
2021/01/07 19:54:37;;;;;;;26.80;12.57;;;;;;;1.42;95.91;100028.19;3532940;81;35096;-83
2021/01/07 19:59:38;;;;;;;23.73;12.20;;;;;;;1.51;95.76;100028.96;3520059;81;98524;-83
2021/01/07 20:04:39;;;;;;;22.50;11.70;;;;;;;1.58;95.52;100034.66;3550485;81;35041;-83
2021/01/07 20:09:40;;;;;;;24.43;11.65;;;;;;;1.65;95.60;100030.09;3553849;81;98530;-82
2021/01/07 20:14:41;;;;;;;28.00;12.33;;;;;;;1.66;95.12;100027.60;3555452;81;35541;-83
2021/01/07 20:19:42;;;;;;;35.00;13.73;;;;;;;1.62;95.31;100030.73;3570155;80;98479;-83
2021/01/07 20:24:46;;;;;;;31.70;13.78;;;;;;;1.56;95.12;100029.33;3582991;80;35079;-83
2021/01/07 20:29:47;;;;;;;33.60;15.17;;;;;;;1.45;95.28;100028.91;3572634;80;105329;-82
2021/01/07 20:34:48;;;;;;;30.73;14.00;;;;;;;1.43;95.39;100031.71;3578774;80;35063;-83
2021/01/07 20:39:49;;;;;;;33.63;15.28;;;;;;;1.39;95.52;100032.12;3575195;80;98591;-83
2021/01/07 20:44:50;;;;;;;31.77;14.27;;;;;;;1.40;95.67;100037.77;3563259;80;98652;-82
2021/01/07 20:49:52;;;;;;;32.17;15.20;;;;;;;1.47;95.62;100039.41;3585406;80;35153;-83
2021/01/07 20:54:53;;;;;;;29.17;13.47;;;;;;;1.47;95.51;100042.93;3590976;80;98357;-82
2021/01/07 20:59:56;;;;;;;30.80;14.50;;;;;;;1.46;95.49;100041.34;3581221;80;98769;-83
2021/01/07 21:04:57;;;;;;;27.57;13.37;;;;;;;1.52;95.61;100025.67;3561235;80;35531;-83
2021/01/07 21:09:58;;;;;;;31.20;15.30;;;;;;;1.53;95.43;100025.35;3577456;80;98142;-83
2021/01/07 21:14:59;;;;;;;29.33;14.27;;;;;;;1.58;95.29;100014.90;3592480;80;35187;-82
2021/01/07 21:20:00;;;;;;;33.23;14.67;;;;;;;1.55;95.30;100019.61;3574124;80;98733;-82
2021/01/07 21:25:03;;;;;;;28.13;14.67;;;;;;;1.52;95.16;100021.60;3581872;80;35022;-81
2021/01/07 21:30:05;;;;;;;26.13;12.67;;;;;;;1.48;95.40;100020.69;3577614;80;98772;-83
2021/01/07 21:35:08;;;;;;;31.10;12.80;;;;;;;1.45;95.33;100022.13;3583888;80;35046;-82
2021/01/07 21:40:09;;;;;;;30.60;13.23;;;;;;;1.42;95.33;100030.91;3579420;80;99079;-81
2021/01/07 21:45:15;;;;;;;30.70;13.67;;;;;;;1.41;95.40;100023.90;3590248;80;35059;-83
2021/01/07 21:50:14;;;;;;;28.97;12.63;;;;;;;1.37;95.40;100027.59;3582259;80;98721;-83
2021/01/07 21:55:17;;;;;;;31.50;13.90;;;;;;;1.41;95.54;100034.75;3594957;80;35034;-82
2021/01/07 22:00:24;;;;;;;25.77;13.60;;;;;;;1.44;95.49;100035.46;3591198;80;98747;-84
2021/01/07 22:05:27;;;;;;;25.43;13.33;;;;;;;1.49;95.43;100025.76;3591812;80;35793;-82
2021/01/07 22:10:28;;;;;;;28.17;12.93;;;;;;;1.54;95.40;100026.94;3572706;80;98588;-81
2021/01/07 22:15:29;;;;;;;23.90;11.37;;;;;;;1.56;95.08;100024.71;3585295;80;35031;-83
2021/01/07 22:20:30;;;;;;;27.33;14.33;;;;;;;1.52;95.18;100024.31;3575642;80;98611;-83
2021/01/07 22:25:31;;;;;;;29.33;13.30;;;;;;;1.41;95.19;100032.03;3583005;80;35596;-82
2021/01/07 22:30:32;;;;;;;25.00;12.33;;;;;;;1.29;95.36;100022.45;3590349;80;98681;-82
2021/01/07 22:35:33;;;;;;;28.70;14.80;;;;;;;1.28;95.60;100029.54;3595125;80;35082;-82
2021/01/07 22:40:34;;;;;;;26.43;12.43;;;;;;;1.22;95.62;100031.62;3582006;80;98709;-83
2021/01/07 22:45:35;;;;;;;30.47;12.53;;;;;;;1.19;95.77;100034.19;3577647;80;35212;-83
2021/01/07 22:50:36;;;;;;;30.17;13.43;;;;;;;1.16;95.81;100032.14;3564461;80;98968;-82
2021/01/07 22:55:37;;;;;;;32.43;14.77;;;;;;;1.14;95.93;100043.84;3579345;80;35077;-82
2021/01/07 23:00:39;;;;;;;29.65;12.03;;;;;;;1.11;96.10;100048.00;3575986;80;98698;-82
2021/01/07 23:05:40;;;;;;;32.80;14.17;;;;;;;1.13;96.15;100044.97;3573374;80;32656;-82
2021/01/07 23:10:41;;;;;;;32.53;14.70;;;;;;;1.15;96.07;100043.53;3570700;81;98698;-83
2021/01/07 23:15:42;;;;;;;31.00;12.40;;;;;;;1.16;96.15;100052.47;3601349;80;32729;-82
2021/01/07 23:20:43;;;;;;;29.87;12.07;;;;;;;1.21;96.12;100049.00;3553892;81;98789;-84
2021/01/07 23:25:44;;;;;;;29.20;12.77;;;;;;;1.27;96.05;100043.64;3557901;81;33637;-86
2021/01/07 23:30:45;;;;;;;27.00;10.63;;;;;;;1.34;95.90;100049.92;3557332;81;98688;-82
2021/01/07 23:35:46;;;;;;;29.37;11.93;;;;;;;1.38;95.79;100054.36;3562060;81;33941;-84